Time;durP1;ratioP1;P1;durP2;ratioP2;P2;SDS_P1;SDS_P2;PMS_P1;PMS_P2;Temp;Humidity;BMP_temperature;BMP_pressure;BME280_temperature;BME280_humidity;BME280_pressure;Samples;Min_cycle;Max_cycle;Signal;HPM_P1;HPM_P2
2024/01/11 00:01:35;;;;;;;56.50;27.60;;;;;;;-2.31;100.00;62658.66;5051424;28;20228;-57
2024/01/11 00:04:01;;;;;;;56.27;25.87;;;;;;;-2.17;100.00;62673.22;5051329;28;20315;-57
2024/01/11 00:06:26;;;;;;;56.10;25.60;;;;;;;-2.13;100.00;62683.03;5051508;28;20189;-53
2024/01/11 00:08:52;;;;;;;51.83;25.13;;;;;;;-1.83;100.00;62715.41;5050930;28;20851;-54
2024/01/11 00:11:17;;;;;;;55.20;25.13;;;;;;;-1.80;100.00;62718.66;5050868;28;20204;-52
2024/01/11 00:13:43;;;;;;;55.73;23.97;;;;;;;-1.83;99.59;62717.34;5033238;28;20209;-51
2024/01/11 00:16:09;;;;;;;53.77;24.67;;;;;;;-1.85;99.82;62712.72;5051068;28;20207;-53
2024/01/11 00:18:34;;;;;;;52.60;24.70;;;;;;;-1.85;99.51;62713.25;5033349;28;20619;-52
2024/01/11 00:21:00;;;;;;;49.57;22.73;;;;;;;-1.99;100.00;62697.59;5058833;23;20653;-51
2024/01/11 00:23:26;;;;;;;48.77;22.80;;;;;;;-2.05;99.81;62691.66;5070332;28;20223;-52
2024/01/11 00:25:51;;;;;;;54.90;22.77;;;;;;;-2.16;100.00;62677.31;5052888;28;20257;-52
2024/01/11 00:28:17;;;;;;;49.77;24.60;;;;;;;-2.24;100.00;62668.66;5070834;28;20200;-52
2024/01/11 00:30:43;;;;;;;58.63;24.77;;;;;;;-2.24;100.00;62668.66;5070979;28;20667;-52
2024/01/11 00:33:09;;;;;;;53.03;24.10;;;;;;;-2.23;100.00;62671.69;5070844;28;20237;-52
2024/01/11 00:35:35;;;;;;;47.77;23.40;;;;;;;-2.24;100.00;62670.59;5071438;28;20207;-57
2024/01/11 00:38:01;;;;;;;54.93;24.00;;;;;;;-2.25;100.00;62667.06;5070865;28;20215;-52
2024/01/11 00:40:26;;;;;;;48.60;22.20;;;;;;;-2.11;100.00;62682.72;5070670;28;20623;-52
2024/01/11 00:42:52;;;;;;;55.33;24.53;;;;;;;-2.15;100.00;62680.31;5070715;28;20211;-52
2024/01/11 00:45:18;;;;;;;47.97;22.43;;;;;;;-2.06;100.00;62687.56;5073399;22;20222;-52
2024/01/11 00:47:43;;;;;;;35.10;17.47;;;;;;;-2.05;98.40;62689.19;5040194;28;20543;-52
2024/01/11 00:50:09;;;;;;;24.80;13.87;;;;;;;-1.90;95.35;62707.84;5013038;28;20191;-55
2024/01/11 00:52:35;;;;;;;23.50;11.40;;;;;;;-2.12;94.83;62683.56;5030586;28;20217;-52
2024/01/11 00:55:00;;;;;;;21.50;11.40;;;;;;;-2.29;96.00;62665.75;5030917;28;20186;-55
2024/01/11 00:57:26;;;;;;;23.80;10.50;;;;;;;-2.52;97.26;62637.91;5030891;28;20733;-53
2024/01/11 00:59:52;;;;;;;26.23;12.80;;;;;;;-2.45;97.73;62646.00;5030850;28;20744;-53
2024/01/11 01:02:20;;;;;;;23.27;11.17;;;;;;;-2.49;97.16;62641.69;5030470;28;20206;-52
2024/01/11 01:04:45;;;;;;;19.87;10.57;;;;;;;-2.44;96.99;62649.00;5030732;28;20225;-51
2024/01/11 01:07:11;;;;;;;18.97;9.13;;;;;;;-2.15;95.09;62680.84;5030676;28;20237;-53
2024/01/11 01:09:37;;;;;;;18.03;10.10;;;;;;;-2.29;94.16;62662.72;5030593;28;20684;-53
2024/01/11 01:12:03;;;;;;;20.40;11.47;;;;;;;-2.36;94.27;62658.19;5030431;28;20214;-52
2024/01/11 01:14:28;;;;;;;26.00;11.30;;;;;;;-2.26;93.15;62665.97;5030447;28;20188;-53
2024/01/11 01:16:54;;;;;;;26.50;12.47;;;;;;;-2.27;93.63;62667.34;5030311;28;20209;-52
2024/01/11 01:19:19;;;;;;;20.00;10.97;;;;;;;-2.43;94.45;62647.63;5030681;28;20213;-54
2024/01/11 01:21:45;;;;;;;20.47;9.43;;;;;;;-2.38;93.73;62653.03;5030363;28;20196;-54
2024/01/11 01:24:10;;;;;;;19.47;8.70;;;;;;;-2.45;94.06;62648.47;5030081;28;20233;-55
2024/01/11 01:26:36;;;;;;;16.57;8.17;;;;;;;-2.47;94.53;62645.78;5030307;28;20190;-51
2024/01/11 01:29:02;;;;;;;18.73;8.57;;;;;;;-2.52;93.90;62640.38;5030248;28;20203;-53
2024/01/11 01:31:28;;;;;;;16.97;7.67;;;;;;;-2.57;94.61;62638.00;5012542;28;20199;-54
2024/01/11 01:33:54;;;;;;;10.83;5.90;;;;;;;-2.45;92.44;62645.47;5030345;28;20284;-53
2024/01/11 01:36:19;;;;;;;13.47;6.77;;;;;;;-2.38;91.07;62655.50;5033715;28;20286;-54
2024/01/11 01:38:45;;;;;;;11.67;6.07;;;;;;;-2.44;90.83;62649.53;5033521;28;20209;-54
2024/01/11 01:41:11;;;;;;;14.47;6.83;;;;;;;-2.63;92.54;62626.59;5033517;28;20244;-54
2024/01/11 01:43:36;;;;;;;16.20;7.00;;;;;;;-2.61;92.61;62631.19;5033253;28;20595;-53
2024/01/11 01:46:03;;;;;;;13.10;7.37;;;;;;;-2.58;92.79;62634.44;5033529;28;20198;-54
2024/01/11 01:48:29;;;;;;;15.13;7.40;;;;;;;-2.67;92.87;62622.78;5033593;28;20304;-53
2024/01/11 01:50:55;;;;;;;11.77;7.03;;;;;;;-2.63;93.19;62629.56;5033782;28;20632;-53
2024/01/11 01:53:22;;;;;;;15.70;7.70;;;;;;;-2.71;94.50;62620.41;5033398;28;20275;-54
2024/01/11 01:55:48;;;;;;;15.77;8.50;;;;;;;-2.74;96.60;62612.78;5033778;28;20237;-53
2024/01/11 01:58:15;;;;;;;15.23;7.73;;;;;;;-2.61;97.41;62626.28;5033473;28;20217;-52
2024/01/11 02:00:42;;;;;;;15.60;7.43;;;;;;;-2.47;96.72;62643.31;5033476;28;20189;-51
2024/01/11 02:03:09;;;;;;;17.50;7.63;;;;;;;-2.48;95.91;62645.22;5033123;28;20225;-54
2024/01/11 02:05:35;;;;;;;13.00;7.17;;;;;;;-2.68;98.63;62624.19;5033196;28;20183;-52
2024/01/11 02:08:03;;;;;;;13.57;6.97;;;;;;;-2.84;100.00;62604.47;5033118;28;20309;-52
2024/01/11 02:10:33;;;;;;;13.20;7.40;;;;;;;-2.69;100.00;62623.09;5015755;28;20208;-52
2024/01/11 02:12:59;;;;;;;14.33;6.83;;;;;;;-2.65;98.55;62622.47;5015368;28;20217;-55
2024/01/11 02:15:24;;;;;;;16.23;7.80;;;;;;;-2.60;96.99;62632.81;5033453;28;20252;-53
2024/01/11 02:17:51;;;;;;;11.57;6.03;;;;;;;-2.42;94.61;62654.16;5033137;28;20210;-53
2024/01/11 02:20:17;;;;;;;14.80;7.17;;;;;;;-2.47;93.08;62646.31;5033136;28;20201;-53
2024/01/11 02:22:50;;;;;;;13.03;6.67;;;;;;;-2.72;94.93;62619.88;5032794;28;20324;-53
2024/01/11 02:25:16;;;;;;;10.80;7.13;;;;;;;-2.85;96.33;62605.84;5032800;28;20216;-53
2024/01/11 02:27:47;;;;;;;13.43;6.60;;;;;;;-2.92;97.36;62600.75;5014989;28;20304;-53
2024/01/11 02:30:13;;;;;;;13.03;7.80;;;;;;;-2.87;97.79;62603.66;5033268;28;20539;-54
2024/01/11 02:32:39;;;;;;;14.43;7.50;;;;;;;-2.77;97.45;62611.47;5032671;28;20305;-58
2024/01/11 02:35:05;;;;;;;15.87;8.03;;;;;;;-2.89;98.87;62601.50;5015398;28;20280;-54
2024/01/11 02:37:31;;;;;;;17.87;8.93;;;;;;;-2.83;98.26;62605.00;5032628;28;20205;-54
2024/01/11 02:39:57;;;;;;;22.00;9.83;;;;;;;-2.85;99.22;62605.84;5033214;28;20233;-53
2024/01/11 02:42:23;;;;;;;22.20;11.20;;;;;;;-2.90;98.88;62599.91;5014910;28;20244;-52
2024/01/11 02:44:49;;;;;;;26.57;13.43;;;;;;;-2.92;99.19;62598.28;5032684;28;20481;-55
2024/01/11 02:47:14;;;;;;;30.17;14.37;;;;;;;-3.12;99.48;62574.25;4998456;28;20581;-53
2024/01/11 02:49:39;;;;;;;33.50;14.63;;;;;;;-3.16;100.00;62571.84;5015053;28;20197;-54
2024/01/11 02:52:05;;;;;;;21.57;9.00;;;;;;;-3.11;96.11;62577.78;5014756;28;20225;-53
2024/01/11 02:54:31;;;;;;;18.00;8.70;;;;;;;-3.04;94.95;62582.34;5032747;28;20191;-54
2024/01/11 02:56:57;;;;;;;15.23;9.00;;;;;;;-3.22;98.18;62563.47;5014663;28;20214;-54
2024/01/11 02:59:23;;;;;;;21.40;10.43;;;;;;;-3.24;97.40;62563.78;5032375;28;20265;-55
2024/01/11 03:01:49;;;;;;;16.60;10.27;;;;;;;-3.14;95.78;62572.09;5014559;28;20221;-54
2024/01/11 03:04:15;;;;;;;34.77;8.87;;;;;;;-3.11;94.19;62579.72;5014457;28;20213;-53
2024/01/11 03:06:41;;;;;;;25.07;9.30;;;;;;;-3.05;95.86;62581.78;5032284;28;20199;-54
2024/01/11 03:09:07;;;;;;;19.00;9.27;;;;;;;-3.22;96.19;62563.47;5032037;28;20610;-54
2024/01/11 03:11:32;;;;;;;14.97;7.13;;;;;;;-3.15;94.71;62572.94;5032334;28;20279;-54
2024/01/11 03:13:59;;;;;;;15.30;7.07;;;;;;;-3.08;92.23;62581.03;5032243;28;20232;-53
2024/01/11 03:16:24;;;;;;;10.87;5.87;;;;;;;-3.19;91.79;62569.16;5014362;28;20648;-53
2024/01/11 03:18:50;;;;;;;10.60;4.90;;;;;;;-3.50;93.03;62535.75;5031900;28;20245;-53
2024/01/11 03:21:15;;;;;;;11.17;5.33;;;;;;;-3.52;94.70;62536.03;5014420;28;20253;-54
2024/01/11 03:23:41;;;;;;;12.57;5.57;;;;;;;-3.54;94.72;62531.44;5031918;28;20268;-54
2024/01/11 03:26:17;;;;;;;8.07;4.50;;;;;;;-3.50;94.46;62536.28;5014186;28;20286;-52
2024/01/11 03:28:43;;;;;;;8.43;4.63;;;;;;;-3.44;96.21;62542.75;5031904;28;20289;-54
2024/01/11 03:31:09;;;;;;;7.57;4.00;;;;;;;-3.49;94.47;62536.81;5031883;28;20196;-55
2024/01/11 03:33:36;;;;;;;6.07;3.80;;;;;;;-3.42;94.41;62544.91;5032011;28;20210;-55
2024/01/11 03:36:11;;;;;;;6.43;4.27;;;;;;;-3.60;94.96;62525.50;5032273;28;20283;-54
2024/01/11 03:38:37;;;;;;;8.20;4.57;;;;;;;-3.65;97.01;62517.66;5031784;28;20216;-54
2024/01/11 03:41:12;;;;;;;8.70;5.13;;;;;;;-3.58;100.00;62524.66;5032227;28;20191;-53
2024/01/11 03:43:38;;;;;;;8.60;4.23;;;;;;;-3.35;96.60;62554.38;5014076;28;20304;-56
2024/01/11 03:46:03;;;;;;;10.97;6.07;;;;;;;-3.29;95.70;62558.38;4997713;28;20265;-53
2024/01/11 03:48:30;;;;;;;11.90;6.50;;;;;;;-3.33;95.07;62548.59;5031630;28;20209;-52
2024/01/11 03:50:56;;;;;;;9.17;5.60;;;;;;;-3.39;95.34;62544.59;5031730;28;20192;-52
2024/01/11 03:53:21;;;;;;;8.57;4.43;;;;;;;-3.31;92.85;62556.22;5031485;28;20646;-52
2024/01/11 03:55:47;;;;;;;7.37;4.20;;;;;;;-3.33;93.64;62551.59;5031622;28;20186;-52
2024/01/11 03:58:12;;;;;;;8.20;4.40;;;;;;;-3.54;94.07;62531.97;5030692;28;20213;-53
2024/01/11 04:00:38;;;;;;;7.27;4.23;;;;;;;-3.43;94.54;62541.34;5013956;28;20268;-53
2024/01/11 04:03:05;;;;;;;5.27;3.63;;;;;;;-3.50;93.31;62536.28;5030480;28;20213;-53
2024/01/11 04:05:31;;;;;;;5.13;3.70;;;;;;;-3.50;93.80;62533.28;5031168;28;20186;-53
2024/01/11 04:07:56;;;;;;;6.97;3.90;;;;;;;-3.45;94.70;62541.66;5013936;28;20347;-53
2024/01/11 04:10:22;;;;;;;6.03;3.83;;;;;;;-3.41;93.96;62545.97;5031611;28;20197;-53
2024/01/11 04:12:48;;;;;;;8.00;4.70;;;;;;;-3.58;93.45;62522.19;5013629;28;20210;-54
2024/01/11 04:15:14;;;;;;;9.67;4.27;;;;;;;-3.62;94.94;62523.34;5031221;28;20196;-54
2024/01/11 04:17:40;;;;;;;6.60;3.80;;;;;;;-3.58;94.24;62524.66;5031247;28;20302;-53
2024/01/11 04:20:08;;;;;;;8.47;4.47;;;;;;;-3.66;94.98;62521.50;5013561;28;20324;-54
2024/01/11 04:22:34;;;;;;;7.23;4.20;;;;;;;-3.55;94.29;62530.88;5056321;23;20229;-53
2024/01/11 04:25:00;;;;;;;6.13;4.07;;;;;;;-3.64;93.75;62518.72;5070958;28;20202;-52
2024/01/11 04:27:26;;;;;;;7.43;4.40;;;;;;;-3.74;96.12;62509.88;5053106;28;20292;-53
2024/01/11 04:29:51;;;;;;;8.60;5.03;;;;;;;-3.64;95.16;62518.72;5052865;28;20214;-53
2024/01/11 04:32:17;;;;;;;8.03;5.13;;;;;;;-3.66;95.24;62516.03;5053042;28;20698;-54
2024/01/11 04:34:43;;;;;;;10.40;5.13;;;;;;;-3.66;95.81;62516.03;5053024;28;20185;-54
2024/01/11 04:37:09;;;;;;;12.10;5.27;;;;;;;-3.61;96.21;62521.41;5070985;28;20270;-55
2024/01/11 04:39:34;;;;;;;8.47;5.07;;;;;;;-3.71;96.24;62513.63;5070719;28;20323;-54
2024/01/11 04:42:00;;;;;;;9.10;5.47;;;;;;;-3.62;96.57;62520.88;5070885;28;20231;-57
2024/01/11 04:44:26;;;;;;;10.63;5.90;;;;;;;-3.61;97.13;62521.41;5070797;28;20661;-54
2024/01/11 04:46:52;;;;;;;11.90;6.03;;;;;;;-3.65;100.00;62517.66;5070922;28;20280;-56
2024/01/11 04:49:17;;;;;;;10.03;5.80;;;;;;;-3.60;100.00;62522.50;5070699;28;20582;-55
2024/01/11 04:51:43;;;;;;;12.00;6.47;;;;;;;-3.44;98.16;62542.75;5052639;28;20211;-52
2024/01/11 04:54:10;;;;;;;12.40;5.63;;;;;;;-3.63;100.00;62521.72;5070519;28;20658;-53
2024/01/11 04:56:35;;;;;;;11.07;6.10;;;;;;;-3.43;100.00;62541.34;5052630;28;20193;-52
2024/01/11 04:59:01;;;;;;;16.63;7.17;;;;;;;-3.25;97.13;62560.22;5070516;28;20183;-56
2024/01/11 05:01:26;;;;;;;14.30;7.17;;;;;;;-3.15;100.00;62571.00;5052436;28;20216;-53
2024/01/11 05:03:52;;;;;;;15.90;7.43;;;;;;;-2.63;100.00;62627.09;5052462;28;20234;-55
2024/01/11 05:06:19;;;;;;;13.03;7.50;;;;;;;-2.59;100.00;62633.38;5070392;28;20197;-55
2024/01/11 05:08:54;;;;;;;16.97;8.87;;;;;;;-2.83;100.00;62608.00;5070419;28;20208;-59
2024/01/11 05:11:24;;;;;;;19.37;9.70;;;;;;;-2.85;100.00;62605.31;5074373;28;20211;-54
2024/01/11 05:13:51;;;;;;;28.33;9.67;;;;;;;-2.99;100.00;62585.28;5055836;28;20228;-53
2024/01/11 05:16:20;;;;;;;20.17;9.13;;;;;;;-3.04;100.00;62582.88;5074155;28;20189;-53
2024/01/11 05:18:46;;;;;;;16.97;8.43;;;;;;;-3.01;100.00;62588.56;5073950;28;20212;-58
2024/01/11 05:21:11;;;;;;;20.50;10.00;;;;;;;-2.86;100.00;62601.75;5073997;28;20204;-52
2024/01/11 05:23:37;;;;;;;22.43;10.00;;;;;;;-3.07;100.00;62579.63;5073646;28;20235;-52
2024/01/11 05:26:03;;;;;;;20.10;9.20;;;;;;;-2.96;99.87;62593.97;5073756;28;20244;-53
2024/01/11 05:28:28;;;;;;;22.67;10.37;;;;;;;-3.07;100.00;62579.63;5073668;28;20208;-56
2024/01/11 05:30:54;;;;;;;20.07;10.00;;;;;;;-3.01;98.18;62585.59;5073739;28;20177;-53
2024/01/11 05:33:20;;;;;;;24.87;10.40;;;;;;;-3.03;98.46;62586.41;5073998;28;20286;-52
2024/01/11 05:35:46;;;;;;;21.10;11.00;;;;;;;-3.08;97.06;62583.50;5073653;28;20281;-53
2024/01/11 05:38:13;;;;;;;18.53;9.70;;;;;;;-2.96;95.57;62593.44;5073632;28;20223;-53
2024/01/11 05:40:39;;;;;;;19.13;9.53;;;;;;;-3.00;95.97;62589.13;5073858;28;20193;-53
2024/01/11 05:43:04;;;;;;;24.07;10.87;;;;;;;-3.13;98.09;62575.63;5073192;28;20220;-55
2024/01/11 05:45:30;;;;;;;21.83;9.77;;;;;;;-3.11;97.97;62574.78;5073500;28;20548;-54
2024/01/11 05:47:57;;;;;;;20.33;10.53;;;;;;;-3.18;97.03;62567.25;5073654;28;20256;-53
2024/01/11 05:50:23;;;;;;;19.20;10.63;;;;;;;-3.24;96.50;62563.78;5073457;28;20322;-54
2024/01/11 05:52:56;;;;;;;19.70;10.63;;;;;;;-3.32;97.25;62555.16;5073310;28;20225;-57
2024/01/11 05:55:22;;;;;;;24.90;11.67;;;;;;;-3.38;98.18;62548.13;5073297;28;20202;-59
2024/01/11 05:57:48;;;;;;;17.03;10.03;;;;;;;-3.34;97.69;62549.97;5073408;28;20211;-52
2024/01/11 06:00:14;;;;;;;24.07;11.00;;;;;;;-3.33;97.64;62556.00;5073054;28;20689;-52
2024/01/11 06:02:41;;;;;;;19.10;9.47;;;;;;;-3.43;99.16;62541.34;5038663;28;20668;-54
2024/01/11 06:05:12;;;;;;;22.70;10.67;;;;;;;-3.17;98.29;62571.31;5055127;28;20254;-54
2024/01/11 06:07:38;;;;;;;26.47;10.57;;;;;;;-3.41;100.00;62545.97;5072874;28;20201;-52
2024/01/11 06:10:05;;;;;;;22.93;11.17;;;;;;;-3.50;100.00;62535.75;5072888;28;20677;-52
2024/01/11 06:12:31;;;;;;;22.03;12.43;;;;;;;-3.21;99.09;62566.47;5073059;28;20219;-52
2024/01/11 06:14:57;;;;;;;17.47;10.13;;;;;;;-3.07;97.46;62579.63;5072994;28;20222;-53
2024/01/11 06:17:23;;;;;;;15.37;9.27;;;;;;;-3.25;98.92;62562.69;5072900;28;20232;-53
2024/01/11 06:19:49;;;;;;;18.47;10.23;;;;;;;-3.25;98.71;62560.22;5072252;28;20630;-53
2024/01/11 06:22:15;;;;;;;18.67;10.93;;;;;;;-3.28;98.63;62558.91;5054754;28;20243;-53
2024/01/11 06:24:40;;;;;;;23.20;10.93;;;;;;;-3.19;96.98;62571.09;5054760;28;20192;-52
2024/01/11 06:27:06;;;;;;;22.60;11.70;;;;;;;-3.17;96.74;62568.84;5073280;28;20298;-52
2024/01/11 06:29:32;;;;;;;27.40;12.67;;;;;;;-3.18;96.27;62569.69;5072669;28;20186;-54
2024/01/11 06:31:58;;;;;;;28.00;13.80;;;;;;;-3.15;96.72;62571.00;5054960;28;20256;-54
2024/01/11 06:34:24;;;;;;;30.30;14.63;;;;;;;-3.22;97.79;62562.94;5072689;28;20192;-54
2024/01/11 06:36:50;;;;;;;28.63;12.47;;;;;;;-3.25;98.27;62559.69;5072818;28;20262;-52
2024/01/11 06:39:15;;;;;;;28.73;12.83;;;;;;;-3.33;98.42;62553.53;5072714;28;20571;-53
2024/01/11 06:41:41;;;;;;;28.23;14.97;;;;;;;-3.31;99.54;62556.22;5072519;28;20263;-53
2024/01/11 06:44:06;;;;;;;25.73;13.97;;;;;;;-3.31;100.00;62555.69;5072709;28;20289;-53
2024/01/11 06:46:32;;;;;;;27.60;13.67;;;;;;;-3.37;99.20;62549.22;5072568;28;20612;-53
2024/01/11 06:48:57;;;;;;;29.93;14.67;;;;;;;-3.43;100.00;62546.28;5072430;28;20197;-53
2024/01/11 06:51:23;;;;;;;28.97;13.70;;;;;;;-3.46;100.00;62535.66;5072458;28;20272;-54
2024/01/11 06:53:49;;;;;;;23.73;13.20;;;;;;;-3.39;100.00;62547.59;5052711;28;20296;-54
2024/01/11 06:56:23;;;;;;;21.60;11.30;;;;;;;-3.39;100.00;62544.59;5052407;28;20292;-56
2024/01/11 06:58:49;;;;;;;21.27;9.93;;;;;;;-3.20;100.00;62567.53;5072428;28;20283;-54
2024/01/11 07:01:17;;;;;;;20.07;8.43;;;;;;;-3.15;99.58;62572.94;5037841;28;20277;-57
2024/01/11 07:03:42;;;;;;;14.53;8.93;;;;;;;-2.93;98.46;62597.19;5071914;28;20220;-55
2024/01/11 07:06:09;;;;;;;15.07;8.47;;;;;;;-2.87;100.00;62600.69;5072131;28;20192;-56
2024/01/11 07:08:35;;;;;;;16.90;7.90;;;;;;;-2.69;96.15;62623.09;5088869;22;20705;-53
2024/01/11 07:11:04;;;;;;;17.43;8.13;;;;;;;-2.67;97.00;62624.72;5082915;22;20220;-53
2024/01/11 07:13:31;;;;;;;14.90;8.27;;;;;;;-2.65;97.26;62626.88;5054004;28;20319;-54
2024/01/11 07:15:57;;;;;;;13.50;7.73;;;;;;;-2.41;96.67;62652.78;5072075;28;20186;-54
2024/01/11 07:18:24;;;;;;;15.03;7.43;;;;;;;-2.25;100.00;62664.59;5072067;28;20698;-60
2024/01/11 07:20:51;;;;;;;18.20;8.63;;;;;;;-2.09;96.72;62686.78;5072185;28;20200;-54
2024/01/11 07:23:17;;;;;;;18.80;8.03;;;;;;;-1.89;91.89;62706.47;5071740;28;20212;-53
2024/01/11 07:25:43;;;;;;;15.50;8.97;;;;;;;-1.90;94.18;62704.84;5072044;28;20180;-52
2024/01/11 07:28:08;;;;;;;18.67;10.40;;;;;;;-1.83;90.32;62715.41;5071865;28;20208;-52
2024/01/11 07:30:34;;;;;;;31.40;15.63;;;;;;;-1.77;94.08;62724.38;5072047;28;20276;-54
2024/01/11 07:33:00;;;;;;;42.87;20.33;;;;;;;-1.86;92.99;62712.16;5070570;28;20220;-54
2024/01/11 07:35:26;;;;;;;41.17;22.17;;;;;;;-1.80;96.35;62720.59;5071783;28;20256;-59
2024/01/11 07:37:52;;;;;;;41.80;21.17;;;;;;;-1.72;94.71;62727.28;5071810;28;20212;-55
2024/01/11 07:40:18;;;;;;;43.10;20.90;;;;;;;-1.38;93.11;62760.50;5071816;28;20187;-53
2024/01/11 07:42:43;;;;;;;44.87;22.90;;;;;;;-1.32;94.71;62770.00;5071419;28;20226;-53
2024/01/11 07:45:10;;;;;;;35.43;21.70;;;;;;;-1.31;92.80;62770.50;5053958;28;20200;-54
2024/01/11 07:47:39;;;;;;;51.93;24.17;;;;;;;-1.13;91.17;62787.53;5071704;28;20289;-53
2024/01/11 07:50:15;;;;;;;43.90;24.23;;;;;;;-0.92;92.07;62812.69;5071542;28;20192;-53
2024/01/11 07:52:43;;;;;;;58.10;26.90;;;;;;;-0.86;89.69;62816.69;5071646;28;20220;-54
2024/01/11 07:55:11;;;;;;;53.63;26.23;;;;;;;-0.91;87.99;62811.31;5053376;28;20303;-55
2024/01/11 07:57:39;;;;;;;53.70;26.40;;;;;;;-0.74;90.09;62829.13;5053434;28;20227;-53
2024/01/11 08:00:09;;;;;;;43.10;23.73;;;;;;;-0.72;87.30;62831.84;5053395;28;20199;-53
2024/01/11 08:02:35;;;;;;;42.40;22.10;;;;;;;-0.69;89.29;62837.56;5037169;28;20208;-54
2024/01/11 08:05:01;;;;;;;42.60;21.77;;;;;;;-0.52;84.46;62855.94;5071495;28;20214;-55
2024/01/11 08:07:27;;;;;;;38.47;19.57;;;;;;;-0.32;81.70;62875.09;5071330;28;20212;-53
2024/01/11 08:09:53;;;;;;;39.20;21.03;;;;;;;-0.17;81.68;62893.28;5070991;28;20271;-53
2024/01/11 08:12:19;;;;;;;40.77;20.20;;;;;;;-0.07;78.04;62907.13;5071038;28;20220;-55
2024/01/11 08:14:46;;;;;;;40.93;21.43;;;;;;;-0.01;78.31;62908.66;5071099;28;20181;-54
2024/01/11 08:17:16;;;;;;;39.70;20.77;;;;;;;-0.15;81.85;62895.97;5070836;28;20227;-52
2024/01/11 08:19:42;;;;;;;38.47;20.90;;;;;;;-0.05;75.67;62904.34;5070911;28;20267;-53
2024/01/11 08:22:09;;;;;;;46.87;23.43;;;;;;;-0.11;74.90;62900.31;5070822;28;20296;-53
2024/01/11 08:24:36;;;;;;;46.93;22.67;;;;;;;0.26;76.64;62936.81;5070774;28;20698;-53
2024/01/11 08:27:02;;;;;;;57.10;26.57;;;;;;;0.50;74.82;62963.34;5070619;28;20248;-54
2024/01/11 08:29:27;;;;;;;54.43;26.43;;;;;;;0.83;73.55;62999.06;5070891;28;20223;-54
2024/01/11 08:31:54;;;;;;;55.17;26.13;;;;;;;1.00;72.85;63016.94;5071450;28;20216;-54
2024/01/11 08:34:21;;;;;;;51.97;27.13;;;;;;;1.25;74.96;63043.50;5071129;28;20201;-54
2024/01/11 08:36:47;;;;;;;53.63;26.83;;;;;;;1.66;76.70;63090.97;5053162;28;20247;-54
2024/01/11 08:39:14;;;;;;;52.90;27.57;;;;;;;1.97;71.88;63121.03;5053082;28;20200;-52
2024/01/11 08:41:40;;;;;;;62.97;28.70;;;;;;;2.23;64.82;63149.22;5070913;28;20725;-54
2024/01/11 08:44:06;;;;;;;61.13;26.93;;;;;;;2.16;68.20;63141.66;5070529;28;20801;-53
2024/01/11 08:46:34;;;;;;;60.67;30.00;;;;;;;2.37;69.08;63164.97;5070717;28;20192;-53
2024/01/11 08:49:03;;;;;;;48.93;26.63;;;;;;;2.78;65.95;63208.94;5070882;28;20580;-54
2024/01/11 08:51:34;;;;;;;49.77;26.40;;;;;;;3.05;64.33;63235.75;5071064;28;20184;-55
2024/01/11 08:54:00;;;;;;;57.90;27.90;;;;;;;3.12;63.83;63245.84;5053008;28;20181;-54
2024/01/11 08:56:26;;;;;;;48.20;25.80;;;;;;;3.28;66.55;63263.22;5070487;28;20196;-55
2024/01/11 08:58:51;;;;;;;54.50;26.53;;;;;;;3.46;63.79;63281.69;5070620;28;20201;-55
2024/01/11 09:01:18;;;;;;;52.73;24.43;;;;;;;3.48;62.38;63286.34;5070703;28;20609;-55
2024/01/11 09:03:44;;;;;;;43.23;23.80;;;;;;;3.62;59.04;63299.06;5052610;28;20217;-54
2024/01/11 09:06:11;;;;;;;51.77;26.20;;;;;;;3.63;60.41;63302.66;5052827;28;20208;-55
2024/01/11 09:08:36;;;;;;;42.07;23.57;;;;;;;3.88;58.21;63327.88;5070499;28;20205;-55
2024/01/11 09:11:03;;;;;;;47.20;23.50;;;;;;;4.12;56.99;63356.44;5070671;28;20193;-54
2024/01/11 09:13:28;;;;;;;42.10;21.37;;;;;;;3.82;55.77;63323.84;5052465;28;20274;-54
2024/01/11 09:15:55;;;;;;;38.70;21.67;;;;;;;4.04;57.47;63347.75;5070726;28;20607;-55
2024/01/11 09:18:21;;;;;;;46.53;22.50;;;;;;;3.88;55.85;63327.34;5052498;28;20212;-56
2024/01/11 09:20:47;;;;;;;41.43;22.07;;;;;;;4.13;56.59;63352.00;5052770;28;20669;-54
2024/01/11 09:23:14;;;;;;;37.87;22.00;;;;;;;4.42;56.00;63388.53;5070295;28;20663;-54
2024/01/11 09:25:40;;;;;;;40.70;22.90;;;;;;;4.17;54.76;63359.41;5052634;28;20212;-54
2024/01/11 09:28:05;;;;;;;36.73;22.03;;;;;;;4.22;56.17;63364.81;5070206;28;20212;-54
2024/01/11 09:30:31;;;;;;;42.43;20.57;;;;;;;4.37;55.11;63380.59;5070340;28;20199;-56
2024/01/11 09:32:57;;;;;;;40.17;21.43;;;;;;;4.50;54.10;63394.19;5070205;28;20209;-55
2024/01/11 09:35:23;;;;;;;40.00;21.83;;;;;;;4.78;53.93;63422.16;5070241;28;20653;-54
2024/01/11 09:37:49;;;;;;;35.30;19.70;;;;;;;4.85;53.73;63432.25;5070100;28;20207;-54
2024/01/11 09:40:16;;;;;;;41.90;19.97;;;;;;;5.13;52.79;63463.28;5070155;28;20785;-56
2024/01/11 09:42:42;;;;;;;40.83;20.73;;;;;;;5.28;52.60;63478.53;5069880;28;20222;-55
2024/01/11 09:45:12;;;;;;;41.27;21.17;;;;;;;5.69;52.11;63523.16;5070059;28;20203;-55
2024/01/11 09:47:39;;;;;;;37.67;20.50;;;;;;;5.88;51.19;63543.88;5069936;28;20212;-56
2024/01/11 09:50:06;;;;;;;43.20;21.80;;;;;;;5.94;51.23;63552.91;5070116;28;20275;-54
2024/01/11 09:52:32;;;;;;;29.83;17.37;;;;;;;5.97;51.26;63553.13;5069962;28;20215;-57
2024/01/11 09:55:01;;;;;;;30.53;16.70;;;;;;;6.08;50.65;63565.66;5070454;28;20195;-55
2024/01/11 09:57:32;;;;;;;33.97;17.40;;;;;;;6.01;49.87;63560.53;5073102;28;20215;-56
2024/01/11 09:59:58;;;;;;;34.63;18.87;;;;;;;5.84;49.42;63540.06;5055823;28;20195;-55
2024/01/11 10:02:26;;;;;;;31.93;18.43;;;;;;;5.81;51.09;63538.75;5055252;28;20212;-56
2024/01/11 10:04:52;;;;;;;40.43;19.93;;;;;;;6.03;53.04;63559.69;5073189;28;20665;-55
2024/01/11 10:07:24;;;;;;;30.83;18.40;;;;;;;6.53;48.79;63612.22;5055398;28;20212;-55
2024/01/11 10:09:51;;;;;;;33.30;20.27;;;;;;;6.03;50.51;63557.19;5073101;28;20220;-54
2024/01/11 10:12:23;;;;;;;36.53;20.60;;;;;;;4.43;54.29;63389.63;5073158;28;20215;-56
2024/01/11 10:14:49;;;;;;;33.00;19.97;;;;;;;5.50;53.05;63502.47;5055046;28;20200;-56
2024/01/11 10:17:15;;;;;;;34.33;20.30;;;;;;;4.79;53.10;63428.78;5038512;28;20227;-54
2024/01/11 10:19:40;;;;;;;38.33;19.90;;;;;;;5.52;51.67;63507.69;5055023;28;20276;-54
2024/01/11 10:22:06;;;;;;;34.10;20.80;;;;;;;5.75;52.59;63529.69;5073384;28;20247;-54
2024/01/11 10:24:32;;;;;;;35.67;21.03;;;;;;;5.85;51.02;63541.16;5072960;28;20277;-56
2024/01/11 10:27:01;;;;;;;31.83;18.93;;;;;;;6.30;49.56;63587.13;5054775;28;20220;-54
2024/01/11 10:29:37;;;;;;;32.03;19.60;;;;;;;6.57;49.20;63619.06;5072637;28;20197;-56
2024/01/11 10:32:06;;;;;;;40.03;20.47;;;;;;;6.60;47.74;63621.78;5055156;28;20574;-55
2024/01/11 10:34:33;;;;;;;36.63;19.17;;;;;;;6.57;48.65;63616.56;5072978;28;20271;-55
2024/01/11 10:36:59;;;;;;;33.27;19.57;;;;;;;6.90;48.34;63651.44;5054799;28;20761;-54
2024/01/11 10:39:25;;;;;;;33.13;18.10;;;;;;;7.23;47.73;63689.94;5054644;28;20294;-54
2024/01/11 10:41:58;;;;;;;37.13;19.83;;;;;;;7.23;47.93;63687.97;5072547;28;20245;-55
2024/01/11 10:44:28;;;;;;;32.23;18.60;;;;;;;7.45;49.19;63711.44;5072600;28;20251;-55
2024/01/11 10:46:56;;;;;;;34.80;19.27;;;;;;;7.74;48.23;63745.59;5073104;28;20217;-54
2024/01/11 10:49:23;;;;;;;28.93;18.10;;;;;;;7.85;48.57;63754.53;5055021;28;20188;-55
2024/01/11 10:52:21;;;;;;;28.40;17.77;;;;;;;7.47;47.57;63718.63;5072616;28;20254;-54
2024/01/11 10:54:48;;;;;;;28.03;17.37;;;;;;;7.64;47.96;63734.66;5054169;28;20201;-55
2024/01/11 10:57:17;;;;;;;32.80;18.80;;;;;;;7.85;47.04;63755.09;5072613;28;20557;-58
2024/01/11 10:59:44;;;;;;;32.03;19.03;;;;;;;8.02;47.71;63778.13;5072463;28;20573;-55
2024/01/11 11:02:12;;;;;;;33.27;17.90;;;;;;;7.64;48.18;63732.72;5072242;28;20297;-57
2024/01/11 11:04:40;;;;;;;29.00;18.17;;;;;;;7.82;49.88;63753.78;5072300;28;20228;-55
2024/01/11 11:07:08;;;;;;;33.90;18.23;;;;;;;7.92;49.35;63762.19;5054737;28;20292;-56
2024/01/11 11:09:35;;;;;;;29.73;18.07;;;;;;;8.01;47.92;63772.56;5072089;28;20189;-55
2024/01/11 11:12:03;;;;;;;32.10;18.60;;;;;;;8.04;47.55;63772.78;5054229;28;20654;-56
2024/01/11 11:14:32;;;;;;;32.67;18.10;;;;;;;8.09;46.68;63780.75;5072155;28;20275;-55
2024/01/11 11:16:58;;;;;;;32.63;20.07;;;;;;;8.16;45.85;63786.41;5072222;28;20227;-56
2024/01/11 11:19:24;;;;;;;32.07;18.83;;;;;;;8.23;47.04;63801.59;5072050;28;20184;-54